createdAt,value
2018-12-06T00:01:12.341Z,100989.36
2018-12-06T00:06:05.676Z,100978.80
2018-12-06T00:10:58.914Z,100974.29
2018-12-06T00:15:52.146Z,100982.92
2018-12-06T00:20:45.425Z,100981.39
2018-12-06T00:25:38.660Z,100987.13
2018-12-06T00:30:40.312Z,100982.55
2018-12-06T00:35:33.684Z,100992.21
2018-12-06T00:40:26.905Z,100978.30
2018-12-06T00:45:20.125Z,100991.48
2018-12-06T00:50:13.506Z,100993.98
2018-12-06T00:55:06.717Z,100989.93
2018-12-06T00:59:59.915Z,100986.95
2018-12-06T01:04:53.191Z,100981.70
2018-12-06T01:09:46.598Z,100986.30
2018-12-06T01:14:40.803Z,100981.50
2018-12-06T01:19:34.083Z,100975.48
2018-12-06T01:24:27.391Z,100974.08
2018-12-06T01:29:20.727Z,100965.55
2018-12-06T01:34:14.084Z,100960.00
2018-12-06T01:39:07.528Z,100961.90
2018-12-06T01:44:02.209Z,100960.81
2018-12-06T01:48:55.504Z,100966.89
2018-12-06T01:53:48.827Z,100957.31
2018-12-06T01:58:42.693Z,100964.59
2018-12-06T02:03:35.917Z,100955.09
2018-12-06T02:08:29.209Z,100942.15
2018-12-06T02:13:22.423Z,100942.18
2018-12-06T02:18:15.650Z,100947.22
2018-12-06T02:23:08.853Z,100943.78
2018-12-06T02:28:03.371Z,100948.78
2018-12-06T02:32:56.774Z,100940.93
2018-12-06T02:37:50.257Z,100936.81
2018-12-06T02:42:43.630Z,100936.28
2018-12-06T02:47:36.965Z,100927.55
2018-12-06T02:52:30.219Z,100917.77
2018-12-06T02:57:23.449Z,100919.84
2018-12-06T03:02:16.780Z,100917.44
2018-12-06T03:07:10.022Z,100916.28
2018-12-06T03:12:03.274Z,100917.59
2018-12-06T03:16:56.505Z,100917.08
2018-12-06T03:21:49.774Z,100911.28
2018-12-06T03:26:42.996Z,100907.37
2018-12-06T03:31:36.225Z,100907.97
2018-12-06T03:36:29.478Z,100912.50
2018-12-06T03:41:22.700Z,100920.55
2018-12-06T03:46:15.928Z,100923.12
2018-12-06T03:51:09.241Z,100925.30
2018-12-06T03:56:02.587Z,100926.56
2018-12-06T04:00:55.822Z,100936.84
2018-12-06T04:05:49.053Z,100933.76
2018-12-06T04:10:42.286Z,100930.52
2018-12-06T04:15:35.758Z,100919.78
2018-12-06T04:20:29.110Z,100930.03
2018-12-06T04:25:22.349Z,100925.76
2018-12-06T04:30:15.689Z,100931.07
2018-12-06T04:35:08.934Z,100943.98
2018-12-06T04:40:02.210Z,100948.55
2018-12-06T04:44:55.459Z,100951.48
2018-12-06T04:49:48.688Z,100946.95
2018-12-06T04:54:41.920Z,100952.25
2018-12-06T04:59:35.171Z,100961.13
2018-12-06T05:04:28.457Z,100970.02
2018-12-06T05:09:22.012Z,100966.23
2018-12-06T05:14:15.286Z,100968.31
2018-12-06T05:19:08.881Z,100975.73
2018-12-06T05:24:02.122Z,100978.01
2018-12-06T05:28:55.313Z,100981.52
2018-12-06T05:33:48.530Z,100976.39
2018-12-06T05:38:41.870Z,100981.69
2018-12-06T05:43:35.139Z,100980.23
2018-12-06T05:48:28.323Z,100987.14
2018-12-06T05:53:21.536Z,100995.73
2018-12-06T05:58:14.762Z,101001.38
2018-12-06T06:03:08.018Z,101002.87
2018-12-06T06:08:01.211Z,101017.80
2018-12-06T06:12:54.513Z,101015.02
2018-12-06T06:17:47.727Z,101018.05
2018-12-06T06:22:41.007Z,101020.27
2018-12-06T06:27:34.283Z,101026.64
2018-12-06T06:32:27.604Z,101015.38
2018-12-06T06:37:20.834Z,101015.50
2018-12-06T06:42:14.074Z,101042.41
2018-12-06T06:47:07.339Z,101045.19
2018-12-06T06:52:00.662Z,101056.48
2018-12-06T06:56:53.892Z,101073.81
2018-12-06T07:01:47.467Z,101079.77
2018-12-06T07:06:40.695Z,101088.98
2018-12-06T07:11:34.132Z,101096.90
2018-12-06T07:16:27.390Z,101106.47
2018-12-06T07:21:20.587Z,101106.31
2018-12-06T07:26:13.980Z,101105.58
2018-12-06T07:31:07.281Z,101127.34
2018-12-06T07:36:00.485Z,101107.61
2018-12-06T07:40:53.719Z,101131.47
2018-12-06T07:45:47.153Z,101124.44
2018-12-06T07:50:40.453Z,101127.84
2018-12-06T07:55:33.766Z,101141.05
2018-12-06T08:00:27.945Z,101144.61
2018-12-06T08:05:21.169Z,101142.23
2018-12-06T08:10:14.542Z,101150.42
2018-12-06T08:15:08.630Z,101149.89
2018-12-06T08:20:02.584Z,101157.29
2018-12-06T08:24:55.779Z,101147.41
2018-12-06T08:29:49.032Z,101148.19
2018-12-06T08:34:42.253Z,101150.75
2018-12-06T08:39:35.484Z,101138.37
2018-12-06T08:44:28.733Z,101144.66
2018-12-06T08:49:22.114Z,101148.74
2018-12-06T08:54:15.359Z,101158.78
2018-12-06T08:59:08.597Z,101160.51
2018-12-06T09:04:01.961Z,101162.84
2018-12-06T09:08:55.855Z,101169.78
2018-12-06T09:13:49.033Z,101169.38
2018-12-06T09:18:42.247Z,101168.75
2018-12-06T09:23:35.467Z,101158.19
2018-12-06T09:28:28.677Z,101156.53
2018-12-06T09:33:21.883Z,101151.11
2018-12-06T09:38:15.122Z,101126.50
2018-12-06T09:43:08.484Z,101131.77
2018-12-06T09:48:01.830Z,101155.28
2018-12-06T09:52:55.068Z,101160.39
2018-12-06T09:57:48.317Z,101171.09
2018-12-06T10:02:41.686Z,101184.73
2018-12-06T10:07:34.946Z,101189.25
2018-12-06T10:12:28.868Z,101189.44
2018-12-06T10:17:22.174Z,101195.80
2018-12-06T10:22:15.387Z,101195.69
2018-12-06T10:27:08.651Z,101190.56
2018-12-06T10:32:01.945Z,101196.59
2018-12-06T10:36:55.153Z,101198.63
2018-12-06T10:41:48.381Z,101200.77
2018-12-06T10:46:41.692Z,101194.49
2018-12-06T10:51:42.559Z,101199.39
2018-12-06T10:56:35.903Z,101198.20
2018-12-06T11:02:32.500Z,101205.81
2018-12-06T11:07:25.963Z,101197.24
2018-12-06T11:12:19.150Z,101189.95
2018-12-06T11:17:12.339Z,101181.98
2018-12-06T11:22:05.589Z,101179.05
2018-12-06T11:26:58.783Z,101181.47
2018-12-06T11:31:52.445Z,101187.53
2018-12-06T11:36:45.663Z,101185.18
2018-12-06T11:41:42.963Z,101189.77
2018-12-06T11:46:34.214Z,101193.03
2018-12-06T11:51:29.208Z,101204.95
2018-12-06T11:56:22.921Z,101195.02
2018-12-06T12:01:16.172Z,101197.98
2018-12-06T12:06:09.374Z,101199.23
2018-12-06T12:11:02.618Z,101197.53
2018-12-06T12:15:55.822Z,101197.02
2018-12-06T12:20:49.045Z,101199.00
2018-12-06T12:25:42.281Z,101192.11
2018-12-06T12:30:35.525Z,101196.58
2018-12-06T12:35:28.744Z,101203.77
2018-12-06T12:40:21.955Z,101204.46
2018-12-06T12:45:15.187Z,101203.77
2018-12-06T12:50:09.332Z,101208.55
2018-12-06T12:55:02.638Z,101210.27
2018-12-06T12:59:55.827Z,101210.44
2018-12-06T13:04:49.027Z,101201.41
2018-12-06T13:09:42.297Z,101192.48
2018-12-06T13:14:35.507Z,101191.91
2018-12-06T13:19:28.691Z,101189.87
2018-12-06T13:24:21.929Z,101182.11
2018-12-06T13:29:15.167Z,101177.99
2018-12-06T13:34:08.473Z,101184.45
2018-12-06T13:39:01.669Z,101178.64
2018-12-06T13:43:54.973Z,101178.44
2018-12-06T13:48:48.327Z,101173.27
2018-12-06T13:53:41.582Z,101184.42
2018-12-06T13:58:34.818Z,101188.17
2018-12-06T14:03:29.054Z,101186.29
2018-12-06T14:08:22.297Z,101181.19
2018-12-06T14:13:15.498Z,101199.10
2018-12-06T14:18:08.694Z,101203.33
2018-12-06T14:23:01.905Z,101210.89
2018-12-06T14:27:55.109Z,101203.36
2018-12-06T14:32:48.317Z,101204.83
2018-12-06T14:37:41.544Z,101203.08
2018-12-06T14:42:34.793Z,101197.48
2018-12-06T14:47:28.021Z,101203.44
2018-12-06T14:52:21.224Z,101200.19
2018-12-06T14:57:14.470Z,101208.75
2018-12-06T15:02:07.770Z,101205.14
2018-12-06T15:07:01.016Z,101212.65
2018-12-06T15:11:54.254Z,101206.84
2018-12-06T15:16:47.372Z,101211.56
2018-12-06T15:22:10.278Z,101209.99
2018-12-06T15:27:03.541Z,101213.63
2018-12-06T15:31:56.790Z,101215.92
2018-12-06T15:36:50.029Z,101206.03
2018-12-06T15:41:43.259Z,101208.88
2018-12-06T15:46:36.523Z,101204.60
2018-12-06T15:51:29.742Z,101205.44
2018-12-06T15:56:22.966Z,101201.84
2018-12-06T16:01:16.220Z,101195.87
2018-12-06T16:06:09.488Z,101198.91
2018-12-06T16:11:02.700Z,101193.80
2018-12-06T16:15:55.921Z,101192.28
2018-12-06T16:20:49.160Z,101179.03
2018-12-06T16:25:42.384Z,101185.45
2018-12-06T16:30:35.643Z,101186.36
2018-12-06T16:35:28.962Z,101189.65
2018-12-06T16:40:22.200Z,101186.10
2018-12-06T16:45:15.482Z,101186.69
2018-12-06T16:50:09.675Z,101187.09
2018-12-06T16:55:03.274Z,101200.54
2018-12-06T16:59:56.491Z,101203.11
2018-12-06T17:04:49.705Z,101203.57
2018-12-06T17:09:42.931Z,101195.12
2018-12-06T17:14:36.150Z,101186.78
2018-12-06T17:19:29.378Z,101191.30
2018-12-06T17:24:22.628Z,101188.76
2018-12-06T17:29:15.866Z,101180.58
2018-12-06T17:34:09.102Z,101172.64
2018-12-06T17:39:04.273Z,101167.81
2018-12-06T17:43:57.965Z,101173.98
2018-12-06T17:48:52.009Z,101180.58
2018-12-06T17:53:52.017Z,101176.59
2018-12-06T17:58:40.520Z,101178.95
2018-12-06T18:03:33.727Z,101181.38
2018-12-06T18:08:27.198Z,101178.81
2018-12-06T18:13:20.425Z,101176.51
2018-12-06T18:18:13.780Z,101178.46
2018-12-06T18:23:07.055Z,101174.20
2018-12-06T18:28:00.346Z,101170.50
2018-12-06T18:32:53.601Z,101161.64
2018-12-06T18:37:46.809Z,101164.65
2018-12-06T18:42:40.060Z,101174.64
2018-12-06T18:47:33.322Z,101167.98
2018-12-06T18:52:26.583Z,101179.27
2018-12-06T18:57:19.845Z,101172.27
2018-12-06T19:02:13.096Z,101170.03
2018-12-06T19:07:06.353Z,101168.95
2018-12-06T19:11:59.588Z,101169.90
2018-12-06T19:16:53.129Z,101168.60
2018-12-06T19:21:46.480Z,101175.56
2018-12-06T19:26:39.781Z,101176.30
2018-12-06T19:31:33.001Z,101166.84
2018-12-06T19:36:26.535Z,101157.71
2018-12-06T19:41:19.748Z,101155.92
2018-12-06T19:46:12.953Z,101156.73
2018-12-06T19:51:06.180Z,101150.11
2018-12-06T19:55:59.527Z,101145.11
2018-12-06T20:00:52.885Z,101149.20
2018-12-06T20:05:46.122Z,101147.62
2018-12-06T20:10:39.396Z,101151.80
2018-12-06T20:15:32.601Z,101153.26
2018-12-06T20:20:25.926Z,101149.27
2018-12-06T20:25:19.174Z,101144.42
2018-12-06T20:30:12.390Z,101147.91
2018-12-06T20:35:05.922Z,101152.94
2018-12-06T20:39:59.143Z,101153.30
2018-12-06T20:44:52.396Z,101153.09
2018-12-06T20:49:45.622Z,101141.06
2018-12-06T20:54:39.668Z,101139.11
2018-12-06T20:59:33.064Z,101135.73
2018-12-06T21:04:26.338Z,101134.34
2018-12-06T21:09:19.567Z,101143.86
2018-12-06T21:14:13.066Z,101134.34
2018-12-06T21:19:06.395Z,101132.50
2018-12-06T21:24:00.818Z,101128.59
2018-12-06T21:28:54.114Z,101122.75
2018-12-06T21:33:47.304Z,101113.06
2018-12-06T21:38:40.555Z,101111.98
2018-12-06T21:43:34.029Z,101112.48
2018-12-06T21:48:27.217Z,101118.96
2018-12-06T21:53:20.472Z,101119.04
2018-12-06T21:58:13.779Z,101124.48
2018-12-06T22:03:06.988Z,101120.39
2018-12-06T22:08:00.223Z,101121.47
2018-12-06T22:12:53.461Z,101113.27
2018-12-06T22:17:46.694Z,101113.27
2018-12-06T22:22:39.929Z,101113.30
2018-12-06T22:27:33.147Z,101119.50
2018-12-06T22:32:26.449Z,101115.65
2018-12-06T22:37:19.748Z,101105.39
2018-12-06T22:42:12.979Z,101107.64
2018-12-06T22:47:06.235Z,101100.91
2018-12-06T22:51:59.417Z,101099.34
2018-12-06T22:56:52.632Z,101105.20
2018-12-06T23:01:45.980Z,101101.97
2018-12-06T23:06:39.206Z,101097.84
2018-12-06T23:11:32.449Z,101092.20
2018-12-06T23:16:25.654Z,101097.98
2018-12-06T23:21:18.887Z,101105.64
2018-12-06T23:26:12.169Z,101101.45
2018-12-06T23:31:05.408Z,101093.66
2018-12-06T23:35:58.608Z,101101.30
2018-12-06T23:40:51.820Z,101093.48
2018-12-06T23:45:45.027Z,101088.86
2018-12-06T23:50:38.290Z,101084.98
2018-12-06T23:55:31.669Z,101084.58
